sensor_id;sensor_type;location;lat;lon;timestamp;noise_LAeq;noise_LA_min;noise_LA_max;noise_LA01;noise_LA95
79200;Laerm;68628;48.714;9.472;2023-08-06T00:00:28;51.80;50.59;53.86;;
79200;Laerm;68628;48.714;9.472;2023-08-06T00:02:54;51.28;50.61;52.42;;
79200;Laerm;68628;48.714;9.472;2023-08-06T00:05:20;51.28;50.60;52.00;;
79200;Laerm;68628;48.714;9.472;2023-08-06T00:07:47;51.27;50.74;52.17;;
79200;Laerm;68628;48.714;9.472;2023-08-06T00:10:15;51.26;50.65;51.93;;
79200;Laerm;68628;48.714;9.472;2023-08-06T00:12:41;51.26;50.61;52.04;;
79200;Laerm;68628;48.714;9.472;2023-08-06T00:15:08;51.29;50.65;52.34;;
79200;Laerm;68628;48.714;9.472;2023-08-06T00:17:35;51.29;50.68;52.11;;
79200;Laerm;68628;48.714;9.472;2023-08-06T00:20:02;51.70;50.79;54.21;;
79200;Laerm;68628;48.714;9.472;2023-08-06T00:22:38;51.50;50.57;54.16;;
79200;Laerm;68628;48.714;9.472;2023-08-06T00:25:05;51.30;50.66;52.25;;
79200;Laerm;68628;48.714;9.472;2023-08-06T00:27:32;51.30;50.61;52.02;;
79200;Laerm;68628;48.714;9.472;2023-08-06T00:29:58;51.33;50.69;52.44;;
79200;Laerm;68628;48.714;9.472;2023-08-06T00:32:24;51.36;50.60;52.37;;
79200;Laerm;68628;48.714;9.472;2023-08-06T00:34:51;51.56;50.40;52.84;;
79200;Laerm;68628;48.714;9.472;2023-08-06T00:37:17;51.41;50.70;52.98;;
79200;Laerm;68628;48.714;9.472;2023-08-06T00:39:45;51.33;50.66;52.76;;
79200;Laerm;68628;48.714;9.472;2023-08-06T00:42:12;51.35;50.54;52.49;;
79200;Laerm;68628;48.714;9.472;2023-08-06T00:44:39;51.35;50.69;52.70;;
79200;Laerm;68628;48.714;9.472;2023-08-06T00:47:07;51.32;50.50;52.42;;
79200;Laerm;68628;48.714;9.472;2023-08-06T00:49:36;51.37;50.74;52.30;;
79200;Laerm;68628;48.714;9.472;2023-08-06T00:52:05;51.34;50.51;52.43;;
79200;Laerm;68628;48.714;9.472;2023-08-06T00:54:33;51.31;50.55;51.96;;
79200;Laerm;68628;48.714;9.472;2023-08-06T00:57:02;51.31;50.66;51.95;;
79200;Laerm;68628;48.714;9.472;2023-08-06T00:59:31;51.33;50.69;52.00;;
79200;Laerm;68628;48.714;9.472;2023-08-06T01:01:58;51.47;50.68;57.95;;
79200;Laerm;68628;48.714;9.472;2023-08-06T01:04:25;52.03;50.96;58.61;;
79200;Laerm;68628;48.714;9.472;2023-08-06T01:13:16;51.35;50.53;54.38;;
79200;Laerm;68628;48.714;9.472;2023-08-06T01:15:49;52.26;50.97;55.65;;
79200;Laerm;68628;48.714;9.472;2023-08-06T01:18:17;52.67;51.04;56.14;;
79200;Laerm;68628;48.714;9.472;2023-08-06T01:20:44;51.81;50.97;53.13;;
79200;Laerm;68628;48.714;9.472;2023-08-06T01:23:10;51.59;50.76;53.45;;
79200;Laerm;68628;48.714;9.472;2023-08-06T01:31:35;52.34;50.88;54.81;;
79200;Laerm;68628;48.714;9.472;2023-08-06T01:34:10;52.22;50.75;59.39;;
79200;Laerm;68628;48.714;9.472;2023-08-06T01:36:38;51.82;50.69;55.54;;
79200;Laerm;68628;48.714;9.472;2023-08-06T01:39:06;51.75;50.78;56.54;;
79200;Laerm;68628;48.714;9.472;2023-08-06T01:41:32;51.92;50.84;55.08;;
79200;Laerm;68628;48.714;9.472;2023-08-06T01:43:58;52.67;51.09;55.77;;
79200;Laerm;68628;48.714;9.472;2023-08-06T01:46:25;55.54;51.33;61.76;;
79200;Laerm;68628;48.714;9.472;2023-08-06T01:48:51;53.37;50.78;60.66;;
79200;Laerm;68628;48.714;9.472;2023-08-06T01:51:17;51.85;50.62;54.65;;
79200;Laerm;68628;48.714;9.472;2023-08-06T01:53:44;51.97;50.90;55.01;;
79200;Laerm;68628;48.714;9.472;2023-08-06T01:56:10;51.48;50.73;52.85;;
79200;Laerm;68628;48.714;9.472;2023-08-06T01:58:36;51.42;50.72;53.11;;
79200;Laerm;68628;48.714;9.472;2023-08-06T02:01:03;51.43;50.67;53.33;;
79200;Laerm;68628;48.714;9.472;2023-08-06T02:03:29;53.03;50.89;62.81;;
79200;Laerm;68628;48.714;9.472;2023-08-06T02:05:56;52.34;50.84;57.26;;
79200;Laerm;68628;48.714;9.472;2023-08-06T02:08:22;51.98;50.84;56.83;;
79200;Laerm;68628;48.714;9.472;2023-08-06T02:10:49;52.58;50.99;61.32;;
79200;Laerm;68628;48.714;9.472;2023-08-06T02:13:15;51.89;51.02;53.68;;
79200;Laerm;68628;48.714;9.472;2023-08-06T02:15:45;52.12;50.56;61.02;;
79200;Laerm;68628;48.714;9.472;2023-08-06T02:18:15;51.50;50.61;56.03;;
79200;Laerm;68628;48.714;9.472;2023-08-06T02:20:43;51.62;50.83;55.91;;
79200;Laerm;68628;48.714;9.472;2023-08-06T02:23:09;51.46;50.67;53.29;;
79200;Laerm;68628;48.714;9.472;2023-08-06T02:25:36;51.38;50.76;52.65;;
79200;Laerm;68628;48.714;9.472;2023-08-06T02:28:02;51.39;50.72;52.40;;
79200;Laerm;68628;48.714;9.472;2023-08-06T02:30:28;51.42;50.53;55.25;;
79200;Laerm;68628;48.714;9.472;2023-08-06T02:32:55;51.32;50.68;51.93;;
79200;Laerm;68628;48.714;9.472;2023-08-06T02:35:21;52.00;50.65;53.09;;
79200;Laerm;68628;48.714;9.472;2023-08-06T02:37:48;52.00;50.90;53.70;;
79200;Laerm;68628;48.714;9.472;2023-08-06T02:40:14;51.36;50.81;52.38;;
79200;Laerm;68628;48.714;9.472;2023-08-06T02:42:41;51.35;50.73;52.00;;
79200;Laerm;68628;48.714;9.472;2023-08-06T02:45:08;51.49;50.68;52.68;;
79200;Laerm;68628;48.714;9.472;2023-08-06T02:47:34;52.32;51.40;53.54;;
79200;Laerm;68628;48.714;9.472;2023-08-06T02:50:01;52.04;50.85;54.94;;
79200;Laerm;68628;48.714;9.472;2023-08-06T02:52:27;51.38;50.69;52.13;;
79200;Laerm;68628;48.714;9.472;2023-08-06T02:54:54;51.50;50.80;52.24;;
79200;Laerm;68628;48.714;9.472;2023-08-06T02:57:20;51.55;50.79;53.83;;
79200;Laerm;68628;48.714;9.472;2023-08-06T02:59:46;51.36;50.53;55.76;;
79200;Laerm;68628;48.714;9.472;2023-08-06T03:02:12;51.39;50.56;54.84;;
79200;Laerm;68628;48.714;9.472;2023-08-06T03:04:39;51.84;50.79;53.84;;
79200;Laerm;68628;48.714;9.472;2023-08-06T03:07:05;52.00;50.81;54.98;;
79200;Laerm;68628;48.714;9.472;2023-08-06T03:09:32;52.33;50.79;54.47;;
79200;Laerm;68628;48.714;9.472;2023-08-06T03:11:58;51.61;50.71;53.24;;
79200;Laerm;68628;48.714;9.472;2023-08-06T03:14:24;51.94;51.12;52.99;;
79200;Laerm;68628;48.714;9.472;2023-08-06T03:16:51;51.84;50.94;52.67;;
79200;Laerm;68628;48.714;9.472;2023-08-06T03:19:17;51.49;50.77;52.16;;
79200;Laerm;68628;48.714;9.472;2023-08-06T03:21:43;51.46;50.79;53.01;;
79200;Laerm;68628;48.714;9.472;2023-08-06T03:24:09;51.76;50.74;54.03;;
79200;Laerm;68628;48.714;9.472;2023-08-06T03:26:36;51.47;50.55;58.85;;
79200;Laerm;68628;48.714;9.472;2023-08-06T03:29:02;51.34;50.76;51.96;;
79200;Laerm;68628;48.714;9.472;2023-08-06T03:31:28;51.38;50.65;52.22;;
79200;Laerm;68628;48.714;9.472;2023-08-06T03:33:55;51.55;50.75;54.10;;
79200;Laerm;68628;48.714;9.472;2023-08-06T03:36:21;51.75;50.74;53.84;;
79200;Laerm;68628;48.714;9.472;2023-08-06T03:38:47;51.35;50.59;52.64;;
79200;Laerm;68628;48.714;9.472;2023-08-06T03:41:13;51.28;50.64;52.00;;
79200;Laerm;68628;48.714;9.472;2023-08-06T03:43:40;51.34;50.51;58.55;;
79200;Laerm;68628;48.714;9.472;2023-08-06T03:46:06;51.75;50.94;55.51;;
79200;Laerm;68628;48.714;9.472;2023-08-06T03:48:32;51.70;50.93;53.02;;
79200;Laerm;68628;48.714;9.472;2023-08-06T03:50:58;51.66;50.74;56.78;;
79200;Laerm;68628;48.714;9.472;2023-08-06T03:53:27;51.55;50.70;52.95;;
79200;Laerm;68628;48.714;9.472;2023-08-06T03:55:53;51.41;50.69;52.06;;
79200;Laerm;68628;48.714;9.472;2023-08-06T03:58:21;51.43;50.62;52.48;;
79200;Laerm;68628;48.714;9.472;2023-08-06T04:00:47;52.43;50.94;55.97;;
79200;Laerm;68628;48.714;9.472;2023-08-06T04:03:13;52.46;51.03;53.78;;
79200;Laerm;68628;48.714;9.472;2023-08-06T04:05:39;52.32;51.25;55.31;;
79200;Laerm;68628;48.714;9.472;2023-08-06T04:08:06;52.07;50.73;53.57;;
79200;Laerm;68628;48.714;9.472;2023-08-06T04:10:32;51.56;50.85;54.15;;
79200;Laerm;68628;48.714;9.472;2023-08-06T04:12:58;51.90;50.94;54.90;;
79200;Laerm;68628;48.714;9.472;2023-08-06T04:15:24;51.50;50.78;54.52;;
79200;Laerm;68628;48.714;9.472;2023-08-06T04:17:51;51.56;50.78;52.88;;
79200;Laerm;68628;48.714;9.472;2023-08-06T04:20:17;51.61;50.68;52.43;;
79200;Laerm;68628;48.714;9.472;2023-08-06T04:22:44;51.57;50.66;52.91;;
79200;Laerm;68628;48.714;9.472;2023-08-06T04:25:10;51.58;50.70;52.54;;
79200;Laerm;68628;48.714;9.472;2023-08-06T04:27:36;51.71;50.75;53.73;;
79200;Laerm;68628;48.714;9.472;2023-08-06T04:30:07;52.18;51.17;55.16;;
79200;Laerm;68628;48.714;9.472;2023-08-06T04:32:34;52.15;50.93;54.50;;
79200;Laerm;68628;48.714;9.472;2023-08-06T04:35:00;59.03;50.78;62.90;;
79200;Laerm;68628;48.714;9.472;2023-08-06T04:37:27;51.51;50.73;55.71;;
79200;Laerm;68628;48.714;9.472;2023-08-06T04:39:53;51.50;50.59;55.05;;
79200;Laerm;68628;48.714;9.472;2023-08-06T04:42:19;51.59;50.82;52.84;;
79200;Laerm;68628;48.714;9.472;2023-08-06T04:44:45;51.41;50.70;52.59;;
79200;Laerm;68628;48.714;9.472;2023-08-06T04:47:12;51.30;50.56;52.06;;
79200;Laerm;68628;48.714;9.472;2023-08-06T04:49:38;51.30;50.69;51.97;;
79200;Laerm;68628;48.714;9.472;2023-08-06T04:52:04;51.70;50.62;59.06;;
79200;Laerm;68628;48.714;9.472;2023-08-06T04:54:31;51.85;50.84;56.90;;
79200;Laerm;68628;48.714;9.472;2023-08-06T04:56:57;52.64;50.76;56.68;;
79200;Laerm;68628;48.714;9.472;2023-08-06T04:59:24;51.50;50.57;53.42;;
79200;Laerm;68628;48.714;9.472;2023-08-06T05:01:50;51.52;50.63;52.78;;
79200;Laerm;68628;48.714;9.472;2023-08-06T05:04:16;51.49;50.59;52.85;;
79200;Laerm;68628;48.714;9.472;2023-08-06T05:06:42;51.75;50.92;53.40;;
79200;Laerm;68628;48.714;9.472;2023-08-06T05:09:08;52.09;50.91;53.73;;
79200;Laerm;68628;48.714;9.472;2023-08-06T05:11:34;52.94;51.14;55.16;;
79200;Laerm;68628;48.714;9.472;2023-08-06T05:14:01;53.12;50.94;55.98;;
79200;Laerm;68628;48.714;9.472;2023-08-06T05:16:27;51.93;50.83;55.83;;
79200;Laerm;68628;48.714;9.472;2023-08-06T05:18:53;51.73;50.56;54.63;;
79200;Laerm;68628;48.714;9.472;2023-08-06T05:21:19;51.89;50.81;57.15;;
79200;Laerm;68628;48.714;9.472;2023-08-06T05:23:45;51.61;50.93;53.26;;
79200;Laerm;68628;48.714;9.472;2023-08-06T05:26:11;51.56;50.74;54.10;;
79200;Laerm;68628;48.714;9.472;2023-08-06T05:28:40;51.54;50.87;55.43;;
79200;Laerm;68628;48.714;9.472;2023-08-06T05:31:06;51.83;50.91;53.87;;
79200;Laerm;68628;48.714;9.472;2023-08-06T05:33:32;51.64;50.69;52.98;;
79200;Laerm;68628;48.714;9.472;2023-08-06T05:35:58;51.97;50.80;56.78;;
79200;Laerm;68628;48.714;9.472;2023-08-06T05:38:25;53.50;51.31;58.99;;
79200;Laerm;68628;48.714;9.472;2023-08-06T05:40:51;52.71;50.98;59.34;;
79200;Laerm;68628;48.714;9.472;2023-08-06T05:43:17;51.74;50.75;52.41;;
79200;Laerm;68628;48.714;9.472;2023-08-06T05:45:46;51.82;50.89;53.01;;
79200;Laerm;68628;48.714;9.472;2023-08-06T05:48:12;51.84;50.85;53.52;;
79200;Laerm;68628;48.714;9.472;2023-08-06T05:50:38;52.06;50.95;54.56;;
79200;Laerm;68628;48.714;9.472;2023-08-06T05:53:04;53.53;51.58;56.51;;
79200;Laerm;68628;48.714;9.472;2023-08-06T05:55:31;53.61;51.73;55.83;;
79200;Laerm;68628;48.714;9.472;2023-08-06T05:57:58;57.32;52.83;62.20;;
79200;Laerm;68628;48.714;9.472;2023-08-06T06:00:24;60.50;58.21;62.66;;
79200;Laerm;68628;48.714;9.472;2023-08-06T06:02:50;60.62;57.23;62.62;;
79200;Laerm;68628;48.714;9.472;2023-08-06T06:05:16;61.15;58.78;62.96;;
79200;Laerm;68628;48.714;9.472;2023-08-06T06:07:42;61.14;58.50;62.94;;
79200;Laerm;68628;48.714;9.472;2023-08-06T06:10:09;61.35;58.93;63.05;;
79200;Laerm;68628;48.714;9.472;2023-08-06T06:12:35;60.73;58.41;62.66;;
79200;Laerm;68628;48.714;9.472;2023-08-06T06:15:01;54.99;52.79;62.19;;
79200;Laerm;68628;48.714;9.472;2023-08-06T06:17:29;54.38;52.68;57.43;;
79200;Laerm;68628;48.714;9.472;2023-08-06T06:19:55;53.80;52.53;55.99;;
79200;Laerm;68628;48.714;9.472;2023-08-06T06:22:21;55.25;51.33;58.88;;
79200;Laerm;68628;48.714;9.472;2023-08-06T06:24:47;53.96;52.18;57.95;;
79200;Laerm;68628;48.714;9.472;2023-08-06T06:27:13;54.18;52.15;55.17;;
79200;Laerm;68628;48.714;9.472;2023-08-06T06:29:39;54.05;52.84;55.41;;
79200;Laerm;68628;48.714;9.472;2023-08-06T06:32:06;54.37;51.93;55.93;;
79200;Laerm;68628;48.714;9.472;2023-08-06T06:34:32;52.31;51.06;55.51;;
79200;Laerm;68628;48.714;9.472;2023-08-06T06:36:58;51.76;50.94;53.85;;
79200;Laerm;68628;48.714;9.472;2023-08-06T06:39:24;51.73;50.95;53.45;;
79200;Laerm;68628;48.714;9.472;2023-08-06T06:41:50;51.98;50.97;54.22;;
79200;Laerm;68628;48.714;9.472;2023-08-06T06:44:17;51.73;50.67;53.37;;
79200;Laerm;68628;48.714;9.472;2023-08-06T06:46:45;51.46;50.81;52.88;;
79200;Laerm;68628;48.714;9.472;2023-08-06T06:49:12;51.47;50.66;52.49;;
79200;Laerm;68628;48.714;9.472;2023-08-06T06:51:38;51.49;50.71;52.29;;
79200;Laerm;68628;48.714;9.472;2023-08-06T06:54:05;51.35;50.73;52.45;;
79200;Laerm;68628;48.714;9.472;2023-08-06T06:56:31;51.49;50.86;52.86;;
79200;Laerm;68628;48.714;9.472;2023-08-06T06:58:57;51.43;50.58;52.48;;
79200;Laerm;68628;48.714;9.472;2023-08-06T07:01:24;51.35;50.73;53.06;;
79200;Laerm;68628;48.714;9.472;2023-08-06T07:03:54;51.51;50.60;52.88;;
79200;Laerm;68628;48.714;9.472;2023-08-06T07:06:21;51.35;50.40;52.24;;
79200;Laerm;68628;48.714;9.472;2023-08-06T07:08:47;51.54;50.78;52.77;;
79200;Laerm;68628;48.714;9.472;2023-08-06T07:11:13;51.37;50.65;52.07;;
79200;Laerm;68628;48.714;9.472;2023-08-06T07:13:40;51.25;50.74;52.32;;
79200;Laerm;68628;48.714;9.472;2023-08-06T07:16:06;51.33;50.75;52.02;;
79200;Laerm;68628;48.714;9.472;2023-08-06T07:18:32;51.29;50.69;53.29;;
79200;Laerm;68628;48.714;9.472;2023-08-06T07:20:59;51.37;50.65;53.53;;
79200;Laerm;68628;48.714;9.472;2023-08-06T07:23:26;58.55;50.72;65.32;;
79200;Laerm;68628;48.714;9.472;2023-08-06T07:25:52;53.29;51.01;64.92;;
79200;Laerm;68628;48.714;9.472;2023-08-06T07:28:19;52.08;50.60;61.30;;
79200;Laerm;68628;48.714;9.472;2023-08-06T07:30:45;51.26;50.62;51.87;;
79200;Laerm;68628;48.714;9.472;2023-08-06T07:33:12;51.92;50.59;64.10;;
79200;Laerm;68628;48.714;9.472;2023-08-06T07:35:38;51.87;50.85;57.58;;
79200;Laerm;68628;48.714;9.472;2023-08-06T07:38:04;51.83;50.74;54.63;;
79200;Laerm;68628;48.714;9.472;2023-08-06T07:40:31;51.69;50.77;53.58;;
79200;Laerm;68628;48.714;9.472;2023-08-06T07:42:57;51.54;50.69;53.88;;
79200;Laerm;68628;48.714;9.472;2023-08-06T07:45:24;51.92;50.70;56.42;;
79200;Laerm;68628;48.714;9.472;2023-08-06T07:47:52;52.09;50.91;55.61;;
79200;Laerm;68628;48.714;9.472;2023-08-06T07:50:18;51.34;50.70;53.53;;
79200;Laerm;68628;48.714;9.472;2023-08-06T07:52:44;51.28;50.47;51.89;;
79200;Laerm;68628;48.714;9.472;2023-08-06T07:55:10;51.28;50.60;51.81;;
79200;Laerm;68628;48.714;9.472;2023-08-06T07:57:36;51.26;50.70;51.97;;
79200;Laerm;68628;48.714;9.472;2023-08-06T08:00:04;51.37;50.63;52.59;;
79200;Laerm;68628;48.714;9.472;2023-08-06T08:02:31;51.40;50.70;52.57;;
79200;Laerm;68628;48.714;9.472;2023-08-06T08:08:35;51.46;50.71;56.13;;
79200;Laerm;68628;48.714;9.472;2023-08-06T08:11:06;51.67;50.62;54.94;;
79200;Laerm;68628;48.714;9.472;2023-08-06T08:13:38;51.52;50.82;54.00;;
79200;Laerm;68628;48.714;9.472;2023-08-06T08:16:06;51.41;50.70;52.00;;
79200;Laerm;68628;48.714;9.472;2023-08-06T08:18:33;51.45;50.77;52.96;;
79200;Laerm;68628;48.714;9.472;2023-08-06T08:21:09;51.61;50.81;53.33;;
79200;Laerm;68628;48.714;9.472;2023-08-06T08:23:36;51.71;50.84;53.76;;
79200;Laerm;68628;48.714;9.472;2023-08-06T08:26:10;51.71;50.77;57.94;;
79200;Laerm;68628;48.714;9.472;2023-08-06T08:28:52;52.23;50.86;62.20;;
79200;Laerm;68628;48.714;9.472;2023-08-06T08:31:32;54.11;50.79;59.51;;
79200;Laerm;68628;48.714;9.472;2023-08-06T08:34:06;53.07;51.21;58.23;;
79200;Laerm;68628;48.714;9.472;2023-08-06T08:36:59;51.51;50.64;53.81;;
79200;Laerm;68628;48.714;9.472;2023-08-06T08:39:33;51.29;50.70;51.92;;
79200;Laerm;68628;48.714;9.472;2023-08-06T08:42:04;51.37;50.64;52.10;;
79200;Laerm;68628;48.714;9.472;2023-08-06T08:44:32;51.43;50.83;59.51;;
79200;Laerm;68628;48.714;9.472;2023-08-06T08:47:15;51.56;50.85;52.68;;
79200;Laerm;68628;48.714;9.472;2023-08-06T08:49:55;51.33;50.74;52.23;;
79200;Laerm;68628;48.714;9.472;2023-08-06T08:52:26;51.30;50.74;52.03;;
79200;Laerm;68628;48.714;9.472;2023-08-06T08:55:18;51.42;50.76;52.53;;
79200;Laerm;68628;48.714;9.472;2023-08-06T08:57:46;51.34;50.49;52.72;;
79200;Laerm;68628;48.714;9.472;2023-08-06T09:00:13;51.29;50.65;52.29;;
79200;Laerm;68628;48.714;9.472;2023-08-06T09:02:51;51.31;50.62;52.04;;
79200;Laerm;68628;48.714;9.472;2023-08-06T09:05:26;51.30;50.64;52.07;;
79200;Laerm;68628;48.714;9.472;2023-08-06T09:08:34;51.30;50.61;52.79;;
79200;Laerm;68628;48.714;9.472;2023-08-06T09:14:46;52.45;50.67;55.39;;
79200;Laerm;68628;48.714;9.472;2023-08-06T09:17:12;52.49;50.89;55.97;;
79200;Laerm;68628;48.714;9.472;2023-08-06T09:19:43;51.55;50.79;53.17;;
79200;Laerm;68628;48.714;9.472;2023-08-06T09:22:36;51.34;50.77;52.08;;
79200;Laerm;68628;48.714;9.472;2023-08-06T09:25:06;51.80;50.83;53.32;;
79200;Laerm;68628;48.714;9.472;2023-08-06T09:27:46;51.47;50.69;52.64;;
79200;Laerm;68628;48.714;9.472;2023-08-06T09:30:33;51.32;50.67;52.57;;
79200;Laerm;68628;48.714;9.472;2023-08-06T09:33:18;51.28;50.69;51.94;;
79200;Laerm;68628;48.714;9.472;2023-08-06T09:35:48;51.26;50.64;52.77;;
79200;Laerm;68628;48.714;9.472;2023-08-06T09:38:17;51.27;50.65;51.84;;
79200;Laerm;68628;48.714;9.472;2023-08-06T09:40:43;51.29;50.61;52.37;;
79200;Laerm;68628;48.714;9.472;2023-08-06T09:43:12;51.27;50.65;52.25;;
79200;Laerm;68628;48.714;9.472;2023-08-06T09:45:43;51.25;50.69;52.23;;
79200;Laerm;68628;48.714;9.472;2023-08-06T09:48:10;51.53;50.73;53.51;;
79200;Laerm;68628;48.714;9.472;2023-08-06T09:50:38;51.45;50.57;53.71;;
79200;Laerm;68628;48.714;9.472;2023-08-06T09:53:07;51.47;50.70;58.89;;
79200;Laerm;68628;48.714;9.472;2023-08-06T09:55:34;51.33;50.64;52.27;;
79200;Laerm;68628;48.714;9.472;2023-08-06T09:58:01;51.35;50.72;52.36;;
79200;Laerm;68628;48.714;9.472;2023-08-06T10:00:27;51.32;50.71;52.31;;
79200;Laerm;68628;48.714;9.472;2023-08-06T10:02:59;51.36;50.78;52.21;;
79200;Laerm;68628;48.714;9.472;2023-08-06T10:05:33;51.26;50.64;51.84;;
79200;Laerm;68628;48.714;9.472;2023-08-06T10:08:02;51.32;50.74;53.58;;
79200;Laerm;68628;48.714;9.472;2023-08-06T10:10:30;51.34;50.68;52.04;;
79200;Laerm;68628;48.714;9.472;2023-08-06T10:13:00;51.27;50.64;52.88;;
79200;Laerm;68628;48.714;9.472;2023-08-06T10:15:32;51.40;50.65;53.60;;
79200;Laerm;68628;48.714;9.472;2023-08-06T10:18:01;51.35;50.80;51.99;;
79200;Laerm;68628;48.714;9.472;2023-08-06T10:20:34;51.26;50.68;52.06;;
79200;Laerm;68628;48.714;9.472;2023-08-06T10:23:05;51.24;50.67;52.29;;
79200;Laerm;68628;48.714;9.472;2023-08-06T10:25:35;51.28;50.69;52.50;;
79200;Laerm;68628;48.714;9.472;2023-08-06T10:28:10;51.44;50.71;53.46;;
79200;Laerm;68628;48.714;9.472;2023-08-06T10:30:47;51.65;50.66;53.33;;
79200;Laerm;68628;48.714;9.472;2023-08-06T10:33:14;51.64;50.80;53.66;;
79200;Laerm;68628;48.714;9.472;2023-08-06T10:35:45;51.78;50.67;54.54;;
79200;Laerm;68628;48.714;9.472;2023-08-06T10:38:25;52.58;50.96;54.69;;
79200;Laerm;68628;48.714;9.472;2023-08-06T10:43:36;52.78;50.90;53.94;;
79200;Laerm;68628;48.714;9.472;2023-08-06T10:46:21;51.68;50.78;55.48;;
79200;Laerm;68628;48.714;9.472;2023-08-06T10:48:48;52.80;51.32;55.40;;
79200;Laerm;68628;48.714;9.472;2023-08-06T10:51:14;54.30;51.23;57.84;;
79200;Laerm;68628;48.714;9.472;2023-08-06T10:53:50;53.62;50.89;57.56;;
79200;Laerm;68628;48.714;9.472;2023-08-06T10:56:21;52.08;50.64;55.62;;
79200;Laerm;68628;48.714;9.472;2023-08-06T10:58:50;53.20;50.91;55.30;;
79200;Laerm;68628;48.714;9.472;2023-08-06T11:01:17;53.18;50.73;54.01;;
79200;Laerm;68628;48.714;9.472;2023-08-06T11:03:46;54.14;51.55;59.72;;
79200;Laerm;68628;48.714;9.472;2023-08-06T11:06:20;55.24;51.21;60.55;;
79200;Laerm;68628;48.714;9.472;2023-08-06T11:08:54;54.01;51.59;57.05;;
79200;Laerm;68628;48.714;9.472;2023-08-06T11:11:23;54.34;51.02;55.76;;
79200;Laerm;68628;48.714;9.472;2023-08-06T11:13:51;52.84;51.06;55.80;;
79200;Laerm;68628;48.714;9.472;2023-08-06T11:16:20;51.65;50.89;53.06;;
79200;Laerm;68628;48.714;9.472;2023-08-06T11:18:48;51.75;50.91;53.99;;
79200;Laerm;68628;48.714;9.472;2023-08-06T11:21:20;51.45;50.69;52.40;;
79200;Laerm;68628;48.714;9.472;2023-08-06T11:24:02;51.41;50.65;52.15;;
79200;Laerm;68628;48.714;9.472;2023-08-06T11:26:49;51.42;50.74;52.18;;
79200;Laerm;68628;48.714;9.472;2023-08-06T11:33:26;51.41;50.70;52.05;;
79200;Laerm;68628;48.714;9.472;2023-08-06T11:36:02;51.40;50.70;51.98;;
79200;Laerm;68628;48.714;9.472;2023-08-06T11:38:36;51.44;50.84;52.12;;
79200;Laerm;68628;48.714;9.472;2023-08-06T11:41:57;51.41;50.82;52.11;;
79200;Laerm;68628;48.714;9.472;2023-08-06T11:44:26;51.54;50.82;52.26;;
79200;Laerm;68628;48.714;9.472;2023-08-06T11:46:56;51.93;50.95;55.12;;
79200;Laerm;68628;48.714;9.472;2023-08-06T11:49:48;53.39;51.49;55.12;;
79200;Laerm;68628;48.714;9.472;2023-08-06T11:52:20;52.96;51.11;56.32;;
79200;Laerm;68628;48.714;9.472;2023-08-06T11:55:01;52.86;51.10;56.71;;
79200;Laerm;68628;48.714;9.472;2023-08-06T11:57:37;52.79;51.43;54.97;;
79200;Laerm;68628;48.714;9.472;2023-08-06T12:00:13;54.10;51.17;58.04;;
79200;Laerm;68628;48.714;9.472;2023-08-06T12:02:43;52.18;51.23;54.39;;
79200;Laerm;68628;48.714;9.472;2023-08-06T12:05:14;52.35;51.27;54.42;;
79200;Laerm;68628;48.714;9.472;2023-08-06T12:07:46;52.81;51.46;54.93;;
79200;Laerm;68628;48.714;9.472;2023-08-06T12:10:14;52.34;51.06;53.49;;
79200;Laerm;68628;48.714;9.472;2023-08-06T12:12:41;51.98;50.89;63.05;;
79200;Laerm;68628;48.714;9.472;2023-08-06T12:15:09;54.41;50.83;58.92;;
79200;Laerm;68628;48.714;9.472;2023-08-06T12:17:36;55.19;51.26;61.75;;
79200;Laerm;68628;48.714;9.472;2023-08-06T12:20:07;56.39;51.32;60.81;;
79200;Laerm;68628;48.714;9.472;2023-08-06T12:22:35;52.04;50.87;53.82;;
79200;Laerm;68628;48.714;9.472;2023-08-06T12:25:03;53.65;51.21;59.17;;
79200;Laerm;68628;48.714;9.472;2023-08-06T12:27:36;53.45;51.11;57.04;;
79200;Laerm;68628;48.714;9.472;2023-08-06T12:30:04;54.36;51.53;58.08;;
79200;Laerm;68628;48.714;9.472;2023-08-06T12:32:32;52.91;50.97;55.24;;
79200;Laerm;68628;48.714;9.472;2023-08-06T12:34:58;52.85;51.05;55.28;;
79200;Laerm;68628;48.714;9.472;2023-08-06T12:37:25;53.50;51.87;56.37;;
79200;Laerm;68628;48.714;9.472;2023-08-06T12:39:51;53.14;50.96;56.38;;
79200;Laerm;68628;48.714;9.472;2023-08-06T12:42:17;53.10;50.83;55.62;;
79200;Laerm;68628;48.714;9.472;2023-08-06T12:44:43;52.61;50.78;60.65;;
79200;Laerm;68628;48.714;9.472;2023-08-06T12:47:10;52.55;50.80;57.72;;
79200;Laerm;68628;48.714;9.472;2023-08-06T12:49:36;52.59;50.70;61.14;;
79200;Laerm;68628;48.714;9.472;2023-08-06T12:52:03;52.70;50.69;59.17;;
79200;Laerm;68628;48.714;9.472;2023-08-06T12:54:31;51.92;50.78;59.74;;
79200;Laerm;68628;48.714;9.472;2023-08-06T12:57:03;51.63;50.65;62.52;;
79200;Laerm;68628;48.714;9.472;2023-08-06T12:59:29;52.12;50.84;58.03;;
79200;Laerm;68628;48.714;9.472;2023-08-06T13:01:55;52.02;51.02;54.35;;
79200;Laerm;68628;48.714;9.472;2023-08-06T13:04:22;52.10;51.15;54.08;;
79200;Laerm;68628;48.714;9.472;2023-08-06T13:06:48;52.25;51.19;54.21;;
79200;Laerm;68628;48.714;9.472;2023-08-06T13:09:15;52.41;51.48;55.06;;
79200;Laerm;68628;48.714;9.472;2023-08-06T13:11:41;52.11;50.94;54.45;;
79200;Laerm;68628;48.714;9.472;2023-08-06T13:14:13;51.98;51.07;55.29;;
79200;Laerm;68628;48.714;9.472;2023-08-06T13:16:44;51.88;51.08;54.45;;
79200;Laerm;68628;48.714;9.472;2023-08-06T13:19:11;51.90;50.72;53.79;;
79200;Laerm;68628;48.714;9.472;2023-08-06T13:24:08;52.07;51.21;54.46;;
79200;Laerm;68628;48.714;9.472;2023-08-06T13:26:35;52.50;50.85;55.29;;
79200;Laerm;68628;48.714;9.472;2023-08-06T13:29:02;55.21;51.15;66.31;;
79200;Laerm;68628;48.714;9.472;2023-08-06T13:31:28;51.30;50.61;56.20;;
79200;Laerm;68628;48.714;9.472;2023-08-06T13:33:55;51.87;50.68;57.21;;
79200;Laerm;68628;48.714;9.472;2023-08-06T13:36:24;51.78;50.79;54.01;;
79200;Laerm;68628;48.714;9.472;2023-08-06T13:38:50;52.26;50.98;56.96;;
79200;Laerm;68628;48.714;9.472;2023-08-06T13:41:17;52.07;51.19;58.19;;
79200;Laerm;68628;48.714;9.472;2023-08-06T13:43:43;52.03;51.24;54.01;;
79200;Laerm;68628;48.714;9.472;2023-08-06T13:46:10;51.98;51.17;53.73;;
79200;Laerm;68628;48.714;9.472;2023-08-06T13:48:42;52.26;51.15;53.63;;
79200;Laerm;68628;48.714;9.472;2023-08-06T13:51:11;51.95;51.02;53.16;;
79200;Laerm;68628;48.714;9.472;2023-08-06T13:53:38;51.92;50.97;53.28;;
79200;Laerm;68628;48.714;9.472;2023-08-06T13:56:11;51.51;50.85;52.30;;
79200;Laerm;68628;48.714;9.472;2023-08-06T13:58:38;51.61;50.92;52.58;;
79200;Laerm;68628;48.714;9.472;2023-08-06T14:01:05;51.65;50.81;53.17;;
79200;Laerm;68628;48.714;9.472;2023-08-06T14:03:31;51.77;50.80;53.55;;
79200;Laerm;68628;48.714;9.472;2023-08-06T14:05:57;51.63;50.76;52.63;;
79200;Laerm;68628;48.714;9.472;2023-08-06T14:08:24;51.61;50.78;52.58;;
79200;Laerm;68628;48.714;9.472;2023-08-06T14:10:51;52.28;50.63;55.54;;
79200;Laerm;68628;48.714;9.472;2023-08-06T14:13:18;51.98;50.92;54.75;;
79200;Laerm;68628;48.714;9.472;2023-08-06T14:15:44;51.60;50.89;53.20;;
79200;Laerm;68628;48.714;9.472;2023-08-06T14:18:16;51.75;50.87;53.24;;
79200;Laerm;68628;48.714;9.472;2023-08-06T14:20:43;52.12;50.79;54.16;;